Time;durP1;ratioP1;P1;durP2;ratioP2;P2;SDS_P1;SDS_P2;PMS_P1;PMS_P2;Temp;Humidity;BMP_temperature;BMP_pressure;BME280_temperature;BME280_humidity;BME280_pressure;Samples;Min_cycle;Max_cycle;Signal;HPM_P1;HPM_P2
2021/09/20 00:01:49;;;;;;;10.57;6.07;;;15.60;94.80;;;;;;5002287;28;20202;-80
2021/09/20 00:04:14;;;;;;;10.20;5.17;;;15.60;94.70;;;;;;5000241;28;20190;-80
2021/09/20 00:06:40;;;;;;;15.03;6.07;;;15.50;94.70;;;;;;5004543;28;20197;-80
2021/09/20 00:09:06;;;;;;;11.93;6.77;;;15.50;95.00;;;;;;5004227;28;20478;-80
2021/09/20 00:11:32;;;;;;;10.63;6.30;;;15.50;94.70;;;;;;5004935;28;20252;-80
2021/09/20 00:13:59;;;;;;;8.07;5.17;;;15.50;95.00;;;;;;5004320;28;20593;-81
2021/09/20 00:16:24;;;;;;;13.05;5.45;;;15.50;95.00;;;;;;5088720;23;20656;-79
2021/09/20 00:18:50;;;;;;;10.70;6.10;;;15.50;94.80;;;;;;5037341;28;20174;-80
2021/09/20 00:21:16;;;;;;;12.37;5.47;;;15.60;95.00;;;;;;5038519;28;20416;-79
2021/09/20 00:23:42;;;;;;;10.03;6.00;;;15.60;94.60;;;;;;5037044;28;20777;-80
2021/09/20 00:26:08;;;;;;;11.25;4.97;;;15.60;94.70;;;;;;5037156;28;20209;-80
2021/09/20 00:28:34;;;;;;;10.18;5.47;;;15.50;95.00;;;;;;5037172;28;20189;-80
2021/09/20 00:31:00;;;;;;;10.15;5.80;;;15.60;95.00;;;;;;5037714;28;20252;-81
2021/09/20 00:33:26;;;;;;;13.70;6.45;;;15.60;94.80;;;;;;5037604;28;20220;-81
2021/09/20 00:35:53;;;;;;;8.50;5.53;;;15.60;94.80;;;;;;5037511;28;20677;-81
2021/09/20 00:38:19;;;;;;;9.30;6.22;;;15.50;94.40;;;;;;5036964;28;20417;-81
2021/09/20 00:40:45;;;;;;;11.07;6.10;;;15.60;94.30;;;;;;5037390;28;20213;-82
2021/09/20 00:43:11;;;;;;;9.07;5.90;;;15.60;94.50;;;;;;5039325;28;20537;-81
2021/09/20 00:45:37;;;;;;;10.50;5.83;;;15.60;94.00;;;;;;5036499;28;20190;-81
2021/09/20 00:48:03;;;;;;;11.65;6.57;;;15.60;94.20;;;;;;5036734;28;20518;-81
2021/09/20 00:50:28;;;;;;;8.65;5.00;;;15.60;93.90;;;;;;5035818;28;20169;-81
2021/09/20 00:52:54;;;;;;;12.30;6.90;;;15.50;94.20;;;;;;5037204;28;20180;-82
2021/09/20 00:55:21;;;;;;;7.60;5.43;;;15.50;94.50;;;;;;5036724;28;20451;-81
2021/09/20 00:57:47;;;;;;;10.05;5.60;;;15.60;94.00;;;;;;5036942;28;20421;-82
2021/09/20 01:00:13;;;;;;;11.95;5.72;;;15.60;93.80;;;;;;5037035;28;20293;-81
2021/09/20 01:02:39;;;;;;;12.07;5.82;;;15.50;94.20;;;;;;5036983;28;20174;-81
2021/09/20 01:05:07;;;;;;;9.60;6.37;;;15.60;94.20;;;;;;5037214;28;20661;-81
2021/09/20 01:07:33;;;;;;;11.00;5.65;;;15.60;94.50;;;;;;5037135;28;20447;-82
2021/09/20 01:09:59;;;;;;;12.85;6.07;;;15.70;94.50;;;;;;5036876;28;20180;-82
2021/09/20 01:12:27;;;;;;;9.05;5.63;;;15.70;94.40;;;;;;5036521;28;20184;-82
2021/09/20 01:14:58;;;;;;;11.07;6.03;;;15.60;94.40;;;;;;5036198;28;20193;-82
2021/09/20 01:17:24;;;;;;;11.88;6.30;;;15.60;94.60;;;;;;5034573;28;20185;-82
2021/09/20 01:19:50;;;;;;;9.95;5.30;;;15.60;94.60;;;;;;5034841;28;20297;-82
2021/09/20 01:22:19;;;;;;;13.73;7.70;;;15.60;94.80;;;;;;5034989;28;20641;-82
2021/09/20 01:24:45;;;;;;;12.68;5.90;;;15.70;94.70;;;;;;5034975;28;20412;-81
2021/09/20 01:27:13;;;;;;;10.38;6.15;;;15.60;94.60;;;;;;5035044;28;20212;-82
2021/09/20 01:29:39;;;;;;;11.00;5.78;;;15.60;94.80;;;;;;5034737;28;20264;-81
2021/09/20 01:32:06;;;;;;;9.80;5.70;;;15.50;94.80;;;;;;5034763;28;20182;-81
2021/09/20 01:34:33;;;;;;;15.70;6.93;;;15.50;94.90;;;;;;5034627;28;20754;-81
2021/09/20 01:36:59;;;;;;;10.98;6.25;;;15.60;95.20;;;;;;5034645;28;20674;-81
2021/09/20 01:39:27;;;;;;;10.23;5.60;;;15.40;95.20;;;;;;5034091;28;20205;-81
2021/09/20 01:41:55;;;;;;;12.85;5.32;;;15.40;95.40;;;;;;5034568;28;20220;-81
2021/09/20 01:44:22;;;;;;;12.88;6.40;;;15.40;95.40;;;;;;5034644;28;20631;-81
2021/09/20 01:46:49;;;;;;;13.13;6.78;;;15.40;95.50;;;;;;5034290;28;20196;-81
2021/09/20 01:49:16;;;;;;;11.98;6.10;;;15.40;95.40;;;;;;5034356;28;20177;-82
2021/09/20 01:51:41;;;;;;;10.93;5.88;;;15.40;95.50;;;;;;5034660;28;20650;-82
2021/09/20 01:54:08;;;;;;;12.67;6.60;;;15.40;95.60;;;;;;5034458;28;20193;-81
2021/09/20 01:56:35;;;;;;;10.25;6.38;;;15.40;95.50;;;;;;5034863;28;20522;-81
2021/09/20 01:59:02;;;;;;;10.98;6.57;;;15.40;95.50;;;;;;5034682;28;20178;-81
2021/09/20 02:01:28;;;;;;;11.23;6.30;;;15.40;95.50;;;;;;5034331;28;20170;-82
2021/09/20 02:03:54;;;;;;;11.55;6.70;;;15.40;95.50;;;;;;5034210;28;20273;-81
2021/09/20 02:06:22;;;;;;;11.68;6.40;;;15.30;95.60;;;;;;5034443;28;20225;-81
2021/09/20 02:08:50;;;;;;;10.40;5.90;;;15.30;95.80;;;;;;5034199;28;20174;-81
2021/09/20 02:11:16;;;;;;;11.60;6.90;;;15.30;95.70;;;;;;5034237;28;20522;-81
2021/09/20 02:13:43;;;;;;;15.70;6.93;;;15.30;95.70;;;;;;5035286;28;20626;-82
2021/09/20 02:16:09;;;;;;;11.48;5.70;;;15.20;95.90;;;;;;5033738;28;20611;-81
2021/09/20 02:18:36;;;;;;;11.93;6.60;;;15.20;96.00;;;;;;5033553;28;20176;-81
2021/09/20 02:21:03;;;;;;;13.55;6.80;;;15.20;96.00;;;;;;5034058;28;20197;-81
2021/09/20 02:23:29;;;;;;;13.75;7.22;;;15.20;95.90;;;;;;5033546;28;20174;-81
2021/09/20 02:25:55;;;;;;;14.25;7.07;;;15.30;95.80;;;;;;5033596;28;20278;-81
2021/09/20 02:28:21;;;;;;;13.53;7.20;;;15.30;95.60;;;;;;5033236;28;20178;-81
2021/09/20 02:30:47;;;;;;;10.20;6.03;;;15.30;95.50;;;;;;5033833;28;20416;-82
2021/09/20 02:33:12;;;;;;;15.97;7.10;;;15.30;95.70;;;;;;5033455;28;20451;-81
2021/09/20 02:35:38;;;;;;;13.70;6.63;;;15.20;95.60;;;;;;5033510;28;20444;-81
2021/09/20 02:38:04;;;;;;;11.20;6.20;;;15.20;95.70;;;;;;5033216;28;20511;-81
2021/09/20 02:40:30;;;;;;;10.90;5.90;;;15.10;95.70;;;;;;5033070;28;20836;-81
2021/09/20 02:42:56;;;;;;;12.30;6.10;;;15.10;95.70;;;;;;5033650;28;20488;-81
2021/09/20 02:45:22;;;;;;;9.37;5.73;;;15.10;95.50;;;;;;5033038;28;20440;-81
2021/09/20 02:47:48;;;;;;;9.00;5.00;;;15.10;95.20;;;;;;5033251;28;20829;-81
2021/09/20 02:50:14;;;;;;;10.70;5.53;;;15.10;95.70;;;;;;5033201;28;20177;-82
2021/09/20 02:52:40;;;;;;;12.07;6.50;;;15.10;95.80;;;;;;5033215;28;20416;-81
2021/09/20 02:55:08;;;;;;;13.48;6.93;;;15.10;95.80;;;;;;5033181;28;20193;-81
2021/09/20 02:57:34;;;;;;;8.95;5.80;;;15.20;95.50;;;;;;5033590;28;20192;-81
2021/09/20 03:00:00;;;;;;;10.60;6.20;;;15.30;95.60;;;;;;5033328;28;20208;-81
2021/09/20 03:02:26;;;;;;;10.60;5.90;;;15.30;95.60;;;;;;5033530;28;20409;-81
2021/09/20 03:04:52;;;;;;;11.23;6.07;;;15.30;95.50;;;;;;5033293;28;20177;-82
2021/09/20 03:07:18;;;;;;;11.05;6.38;;;15.30;95.40;;;;;;5032923;28;20986;-81
2021/09/20 03:09:44;;;;;;;9.53;5.70;;;15.30;95.20;;;;;;5033050;28;20174;-81
2021/09/20 03:12:10;;;;;;;11.10;5.60;;;15.30;94.90;;;;;;5033234;28;20950;-81
2021/09/20 03:14:35;;;;;;;12.77;5.57;;;15.30;94.90;;;;;;5033352;28;20441;-80
2021/09/20 03:17:02;;;;;;;8.73;6.13;;;15.30;95.00;;;;;;5033457;28;20467;-81
2021/09/20 03:19:28;;;;;;;11.85;6.15;;;15.30;95.40;;;;;;5032729;28;20197;-81
2021/09/20 03:21:53;;;;;;;11.40;5.37;;;15.30;95.20;;;;;;5032685;28;20174;-81
2021/09/20 03:24:19;;;;;;;9.90;6.03;;;15.20;95.50;;;;;;5033473;28;20642;-81
2021/09/20 03:26:45;;;;;;;9.30;5.23;;;15.20;95.50;;;;;;5033828;28;20201;-81
2021/09/20 03:29:11;;;;;;;11.35;5.72;;;15.20;95.60;;;;;;5033697;28;20427;-81
2021/09/20 03:31:37;;;;;;;9.87;5.70;;;15.10;95.80;;;;;;5033303;28;20173;-84
2021/09/20 03:34:03;;;;;;;12.13;6.00;;;15.10;95.80;;;;;;5032490;28;20501;-83
2021/09/20 03:36:29;;;;;;;11.93;5.72;;;15.10;95.70;;;;;;5033664;28;20202;-83
2021/09/20 03:38:55;;;;;;;11.13;5.65;;;15.10;95.80;;;;;;5034013;28;20174;-83
2021/09/20 03:41:21;;;;;;;9.43;5.37;;;15.10;95.80;;;;;;5037058;28;20602;-84
2021/09/20 03:43:47;;;;;;;13.60;6.33;;;15.10;95.80;;;;;;5037799;28;20415;-83
2021/09/20 03:46:12;;;;;;;11.13;5.80;;;15.10;96.10;;;;;;5038979;28;20436;-83
2021/09/20 03:48:38;;;;;;;10.23;6.00;;;15.10;96.20;;;;;;5038817;28;20202;-82
2021/09/20 03:51:04;;;;;;;12.40;6.67;;;15.10;96.20;;;;;;5039032;28;20178;-82
2021/09/20 03:53:30;;;;;;;16.33;5.32;;;15.10;96.50;;;;;;5039360;28;20420;-83
2021/09/20 03:55:56;;;;;;;10.40;5.43;;;15.00;96.60;;;;;;5039932;28;20198;-82
2021/09/20 03:58:22;;;;;;;10.37;5.90;;;15.00;96.70;;;;;;5039107;28;20914;-81
2021/09/20 04:00:48;;;;;;;12.15;6.90;;;15.00;97.10;;;;;;5038007;28;20531;-81
2021/09/20 04:03:14;;;;;;;8.67;5.20;;;14.90;97.10;;;;;;5037350;28;20777;-80
2021/09/20 04:05:40;;;;;;;10.45;5.82;;;14.90;97.20;;;;;;5038630;28;20432;-80
2021/09/20 04:08:08;;;;;;;9.97;6.33;;;15.00;97.10;;;;;;5037837;28;20170;-81
2021/09/20 04:10:34;;;;;;;12.38;5.45;;;15.00;97.10;;;;;;5038007;28;20428;-81
2021/09/20 04:12:59;;;;;;;11.77;6.40;;;15.00;97.10;;;;;;5038666;28;20580;-81
2021/09/20 04:15:25;;;;;;;13.43;5.73;;;15.00;97.30;;;;;;5037378;28;20206;-81
2021/09/20 04:17:51;;;;;;;16.37;6.93;;;15.00;97.20;;;;;;5037773;28;20473;-81
2021/09/20 04:20:17;;;;;;;12.00;5.90;;;15.00;97.20;;;;;;5037472;28;20457;-81
2021/09/20 04:22:43;;;;;;;10.87;5.90;;;15.00;97.20;;;;;;5037309;28;20170;-81
2021/09/20 04:25:10;;;;;;;11.15;6.72;;;15.00;97.30;;;;;;5036207;28;20444;-81
2021/09/20 04:27:36;;;;;;;11.70;5.65;;;15.10;97.10;;;;;;5037078;28;20180;-81
2021/09/20 04:30:02;;;;;;;10.60;5.87;;;15.10;96.80;;;;;;5036318;28;20178;-80
2021/09/20 04:32:28;;;;;;;11.45;5.68;;;15.10;96.90;;;;;;5036155;28;20189;-81
2021/09/20 04:34:54;;;;;;;9.80;6.00;;;15.10;97.00;;;;;;5036554;28;20169;-81
2021/09/20 04:37:20;;;;;;;10.47;5.97;;;15.10;97.10;;;;;;5036845;28;20186;-80
2021/09/20 04:39:46;;;;;;;12.75;6.00;;;15.10;96.90;;;;;;5036224;28;20448;-81
2021/09/20 04:42:13;;;;;;;12.15;6.35;;;15.10;96.80;;;;;;5036569;28;20170;-81
2021/09/20 04:44:39;;;;;;;10.65;6.43;;;15.20;96.60;;;;;;5036498;28;20583;-81
2021/09/20 04:47:05;;;;;;;9.90;6.03;;;15.20;96.70;;;;;;5035930;28;20193;-81
2021/09/20 04:49:31;;;;;;;12.07;6.75;;;15.20;96.90;;;;;;5036157;28;20417;-81
2021/09/20 04:51:57;;;;;;;11.60;6.63;;;15.20;96.70;;;;;;5034287;28;20184;-81
2021/09/20 04:54:22;;;;;;;14.00;6.30;;;15.20;96.70;;;;;;5035936;28;20583;-81
2021/09/20 04:56:48;;;;;;;13.63;6.27;;;15.20;96.70;;;;;;5035760;28;20248;-81
2021/09/20 04:59:14;;;;;;;14.40;6.63;;;15.20;96.60;;;;;;5035934;28;20703;-81
2021/09/20 05:01:40;;;;;;;13.07;6.27;;;15.20;96.60;;;;;;5035729;28;20408;-81
2021/09/20 05:04:06;;;;;;;10.07;5.50;;;15.30;96.50;;;;;;5035207;28;20416;-81
2021/09/20 05:06:32;;;;;;;9.00;5.32;;;15.30;96.60;;;;;;5035785;28;20460;-81
2021/09/20 05:08:57;;;;;;;9.97;6.47;;;15.30;96.70;;;;;;5035425;28;20634;-81
2021/09/20 05:11:23;;;;;;;10.47;5.70;;;15.30;96.70;;;;;;5036125;28;20417;-81
2021/09/20 05:13:49;;;;;;;15.20;7.20;;;15.30;96.70;;;;;;5035354;28;20552;-81
2021/09/20 05:16:15;;;;;;;13.70;7.47;;;15.30;96.80;;;;;;5035358;28;20467;-81
2021/09/20 05:18:40;;;;;;;13.77;7.77;;;15.30;96.80;;;;;;5035190;28;20169;-81
2021/09/20 05:21:06;;;;;;;20.20;7.13;;;15.30;96.80;;;;;;5034916;28;20190;-80
2021/09/20 05:23:32;;;;;;;11.27;6.57;;;15.30;96.80;;;;;;5035177;28;20694;-81
2021/09/20 05:25:58;;;;;;;12.83;6.23;;;15.30;96.60;;;;;;5034913;28;20281;-81
2021/09/20 05:28:24;;;;;;;17.97;6.60;;;15.30;96.70;;;;;;5035098;28;20174;-81
2021/09/20 05:30:49;;;;;;;13.90;6.82;;;15.30;96.60;;;;;;5035394;28;20200;-80
2021/09/20 05:33:16;;;;;;;12.83;6.10;;;15.30;96.70;;;;;;5035125;28;20545;-81
2021/09/20 05:35:42;;;;;;;13.93;7.13;;;15.40;96.70;;;;;;5035246;28;20444;-81
2021/09/20 05:38:07;;;;;;;13.38;6.65;;;15.40;97.00;;;;;;5034891;28;20182;-80
2021/09/20 05:40:33;;;;;;;13.50;6.33;;;15.40;96.70;;;;;;5035106;28;20260;-80
2021/09/20 05:43:00;;;;;;;14.38;7.18;;;15.50;96.60;;;;;;5035176;28;20409;-81
2021/09/20 05:45:26;;;;;;;14.52;7.38;;;15.50;96.80;;;;;;5034708;28;20669;-81
2021/09/20 05:47:52;;;;;;;13.10;7.05;;;15.50;96.80;;;;;;5034681;28;20194;-81
2021/09/20 05:50:20;;;;;;;13.87;6.60;;;15.60;96.50;;;;;;5034099;28;20240;-81
2021/09/20 05:52:46;;;;;;;11.73;6.20;;;15.60;96.50;;;;;;5034475;28;20478;-80
2021/09/20 05:55:13;;;;;;;10.55;6.70;;;15.60;96.40;;;;;;5034075;28;20217;-80
2021/09/20 05:57:39;;;;;;;11.40;6.40;;;15.60;96.40;;;;;;5034648;28;20638;-81
2021/09/20 06:00:06;;;;;;;15.00;6.55;;;15.60;96.40;;;;;;5034755;28;20201;-81
2021/09/20 06:02:32;;;;;;;13.82;7.07;;;15.70;96.20;;;;;;5034143;28;20522;-81
2021/09/20 06:04:58;;;;;;;13.73;5.73;;;15.70;96.00;;;;;;5033880;28;20170;-81
2021/09/20 06:07:23;;;;;;;11.73;6.37;;;15.70;95.90;;;;;;5034542;28;20178;-81
2021/09/20 06:09:49;;;;;;;20.70;7.00;;;15.70;95.80;;;;;;5034395;28;20177;-81
2021/09/20 06:12:15;;;;;;;21.63;7.20;;;15.80;95.60;;;;;;5033928;28;20185;-81
2021/09/20 06:14:40;;;;;;;15.43;7.30;;;15.80;95.10;;;;;;5033973;28;20169;-81
2021/09/20 06:17:06;;;;;;;12.73;6.70;;;15.80;95.20;;;;;;5032283;28;20210;-81
2021/09/20 06:19:32;;;;;;;18.33;7.40;;;15.90;95.20;;;;;;5034132;28;20200;-81
2021/09/20 06:21:58;;;;;;;16.47;6.77;;;15.90;94.80;;;;;;5034607;28;20499;-81
2021/09/20 06:24:23;;;;;;;18.10;7.20;;;15.90;95.00;;;;;;5034121;28;20178;-81
2021/09/20 06:26:49;;;;;;;21.20;8.53;;;15.90;94.90;;;;;;5034205;28;20190;-81
2021/09/20 06:29:15;;;;;;;18.60;7.97;;;15.80;94.80;;;;;;5034270;28;20817;-81
2021/09/20 06:31:41;;;;;;;21.43;6.90;;;15.80;95.00;;;;;;5033950;28;20928;-81
2021/09/20 06:34:07;;;;;;;15.27;9.20;;;15.90;94.90;;;;;;5033555;28;20417;-81
2021/09/20 06:36:33;;;;;;;14.70;7.50;;;15.90;94.90;;;;;;5034238;28;20232;-81
2021/09/20 06:38:58;;;;;;;19.60;8.10;;;16.00;95.30;;;;;;5033926;28;20177;-81
2021/09/20 06:41:25;;;;;;;17.97;8.27;;;16.10;94.50;;;;;;5034042;28;20165;-81
2021/09/20 06:43:55;;;;;;;17.55;8.77;;;16.10;94.50;;;;;;5017690;28;20429;-81
2021/09/20 06:46:21;;;;;;;14.02;7.50;;;16.10;94.10;;;;;;5033755;28;20194;-81
2021/09/20 06:48:46;;;;;;;13.77;7.40;;;16.00;94.20;;;;;;5033739;28;20204;-81
2021/09/20 06:51:12;;;;;;;20.90;8.40;;;16.00;94.40;;;;;;5034066;28;20177;-81
2021/09/20 06:53:38;;;;;;;23.23;8.70;;;16.00;94.60;;;;;;5033877;28;20495;-81
2021/09/20 06:56:04;;;;;;;19.13;8.90;;;16.10;94.30;;;;;;5033747;28;20232;-81
2021/09/20 06:58:30;;;;;;;16.70;7.38;;;16.10;93.80;;;;;;5033144;28;20174;-80
2021/09/20 07:00:55;;;;;;;16.43;9.03;;;16.10;93.80;;;;;;5033126;28;20204;-81
2021/09/20 07:03:21;;;;;;;16.10;8.70;;;16.20;94.30;;;;;;5033215;28;20181;-81
2021/09/20 07:05:47;;;;;;;17.70;8.67;;;16.20;93.40;;;;;;5033303;28;20200;-81
2021/09/20 07:08:13;;;;;;;14.60;8.17;;;16.20;94.00;;;;;;5033837;28;20439;-81
2021/09/20 07:10:38;;;;;;;11.37;7.23;;;16.20;94.20;;;;;;5034069;28;20192;-81
2021/09/20 07:13:09;;;;;;;16.27;8.60;;;16.30;93.90;;;;;;5033350;28;20813;-81
2021/09/20 07:15:38;;;;;;;17.33;8.52;;;16.30;93.60;;;;;;5032435;28;20498;-81
2021/09/20 07:18:05;;;;;;;18.33;8.73;;;16.20;93.20;;;;;;5033445;28;20185;-81
2021/09/20 07:20:31;;;;;;;23.67;9.68;;;16.20;93.70;;;;;;5033315;28;20194;-81
2021/09/20 07:22:57;;;;;;;18.08;8.43;;;16.30;93.80;;;;;;5033378;28;20174;-81
2021/09/20 07:25:23;;;;;;;18.90;9.10;;;16.30;93.40;;;;;;5032977;28;20640;-81
2021/09/20 07:27:49;;;;;;;17.20;8.73;;;16.40;93.70;;;;;;5033187;28;20415;-81
2021/09/20 07:30:17;;;;;;;29.43;8.60;;;16.50;93.50;;;;;;5033354;28;20412;-81
2021/09/20 07:32:44;;;;;;;15.40;8.63;;;16.50;92.70;;;;;;5033354;28;20178;-81
2021/09/20 07:35:12;;;;;;;21.88;9.73;;;16.50;92.50;;;;;;5033093;28;20689;-81
2021/09/20 07:37:38;;;;;;;20.42;8.82;;;16.50;92.90;;;;;;5033371;28;20559;-81
2021/09/20 07:40:05;;;;;;;13.63;8.23;;;16.60;92.70;;;;;;5032979;28;20197;-81
2021/09/20 07:42:30;;;;;;;19.88;9.63;;;16.60;92.10;;;;;;5032894;28;20407;-81
2021/09/20 07:44:56;;;;;;;18.10;8.23;;;16.70;92.70;;;;;;5032520;28;20166;-81
2021/09/20 07:47:22;;;;;;;17.07;8.23;;;16.80;92.20;;;;;;5032800;28;20170;-81
2021/09/20 07:49:47;;;;;;;20.20;10.00;;;16.90;92.60;;;;;;5032976;28;20184;-80
2021/09/20 07:52:13;;;;;;;21.00;9.10;;;17.00;92.00;;;;;;5033329;28;20281;-81
2021/09/20 07:54:39;;;;;;;20.50;8.00;;;17.00;91.40;;;;;;5033433;28;20261;-81
2021/09/20 07:57:05;;;;;;;21.97;9.30;;;16.90;91.40;;;;;;5033237;28;20265;-81
2021/09/20 07:59:30;;;;;;;19.30;8.13;;;16.80;91.60;;;;;;5033984;28;20202;-81
2021/09/20 08:01:56;;;;;;;21.47;9.77;;;16.90;91.70;;;;;;5033086;28;20252;-81
2021/09/20 08:04:22;;;;;;;22.83;8.90;;;17.00;92.20;;;;;;5032995;28;20413;-81
2021/09/20 08:06:48;;;;;;;17.03;8.83;;;17.10;91.80;;;;;;5033290;28;20196;-81
2021/09/20 08:09:13;;;;;;;23.60;10.20;;;17.10;91.30;;;;;;5033127;28;20420;-81
2021/09/20 08:11:39;;;;;;;16.93;8.50;;;17.20;92.10;;;;;;5033839;28;20174;-81
2021/09/20 08:14:05;;;;;;;18.43;9.90;;;17.30;91.20;;;;;;5032745;28;20695;-81
2021/09/20 08:16:31;;;;;;;19.50;9.90;;;17.40;90.70;;;;;;5032774;28;20483;-81
2021/09/20 08:18:56;;;;;;;22.37;9.70;;;17.40;90.80;;;;;;5032738;28;20420;-81
2021/09/20 08:21:22;;;;;;;20.60;9.93;;;17.50;90.90;;;;;;5032862;28;20177;-81
2021/09/20 08:23:48;;;;;;;25.87;10.83;;;17.50;90.20;;;;;;5033081;28;20174;-81
2021/09/20 08:26:14;;;;;;;21.30;10.00;;;17.60;90.10;;;;;;5034299;28;20476;-81
2021/09/20 08:28:40;;;;;;;21.57;8.77;;;17.60;91.10;;;;;;5036937;28;20173;-81
2021/09/20 08:31:06;;;;;;;23.23;11.10;;;17.60;90.80;;;;;;5036884;28;20170;-82
2021/09/20 08:33:32;;;;;;;25.20;10.27;;;17.60;90.20;;;;;;5035996;28;20180;-81
2021/09/20 08:35:58;;;;;;;28.98;10.73;;;17.70;90.50;;;;;;5036074;28;20548;-81
2021/09/20 08:38:24;;;;;;;25.92;10.40;;;17.80;90.90;;;;;;5035966;28;20582;-81
2021/09/20 08:40:51;;;;;;;20.58;10.00;;;17.90;89.90;;;;;;5035403;28;20206;-81
2021/09/20 08:43:17;;;;;;;22.52;11.15;;;18.00;89.40;;;;;;5035553;28;20170;-81
2021/09/20 08:45:42;;;;;;;26.00;11.57;;;18.00;88.80;;;;;;5035328;28;20288;-81
2021/09/20 08:48:09;;;;;;;25.53;11.90;;;18.00;89.10;;;;;;5036259;28;20519;-81
2021/09/20 08:50:37;;;;;;;22.38;10.73;;;18.00;89.40;;;;;;5035327;28;20232;-81
2021/09/20 08:53:05;;;;;;;25.70;12.50;;;18.10;88.50;;;;;;5035306;28;20840;-81
2021/09/20 08:55:32;;;;;;;27.52;11.30;;;18.20;89.90;;;;;;5035159;28;20194;-81
2021/09/20 08:57:58;;;;;;;25.52;12.15;;;18.20;88.50;;;;;;5035757;28;20260;-81
2021/09/20 09:00:25;;;;;;;28.13;11.65;;;18.20;88.50;;;;;;5035224;28;20572;-81
2021/09/20 09:02:51;;;;;;;21.52;10.82;;;18.20;88.30;;;;;;5035585;28;20169;-81
2021/09/20 09:05:25;;;;;;;20.83;10.13;;;18.20;88.00;;;;;;5035719;28;20243;-81
2021/09/20 09:07:57;;;;;;;24.00;10.45;;;18.20;88.80;;;;;;5035641;28;20172;-81
2021/09/20 09:10:26;;;;;;;24.00;11.00;;;18.20;88.40;;;;;;5035716;28;20377;-81
2021/09/20 09:12:53;;;;;;;27.23;12.43;;;18.30;88.70;;;;;;5035702;28;20174;-81
2021/09/20 09:15:22;;;;;;;22.70;11.25;;;18.40;89.10;;;;;;5035530;28;20208;-81
2021/09/20 09:17:52;;;;;;;23.73;11.35;;;18.60;87.80;;;;;;5035679;28;20177;-81
2021/09/20 09:20:24;;;;;;;26.80;12.32;;;18.70;87.80;;;;;;5037502;28;20289;-81
2021/09/20 09:22:55;;;;;;;22.10;10.27;;;18.90;87.10;;;;;;5035716;28;20224;-81
2021/09/20 09:25:23;;;;;;;22.80;12.57;;;19.10;86.60;;;;;;5034813;28;20193;-81
2021/09/20 09:27:59;;;;;;;23.08;11.05;;;19.10;84.80;;;;;;5035622;28;20181;-82
2021/09/20 09:30:30;;;;;;;19.15;9.93;;;19.20;83.90;;;;;;5036032;28;20537;-79
2021/09/20 09:33:15;;;;;;;24.27;12.23;;;19.30;84.20;;;;;;5036228;28;20181;-79
2021/09/20 09:35:46;;;;;;;24.05;11.77;;;19.30;83.50;;;;;;5036205;28;20200;-79
2021/09/20 09:38:12;;;;;;;29.40;11.98;;;19.20;84.20;;;;;;5036262;28;20177;-79
2021/09/20 09:40:51;;;;;;;23.48;12.20;;;19.00;84.40;;;;;;5034628;28;20201;-81
2021/09/20 09:43:40;;;;;;;21.65;11.75;;;18.90;84.50;;;;;;5034826;28;20169;-81
2021/09/20 09:46:23;;;;;;;23.30;11.32;;;18.90;84.90;;;;;;5035414;28;20666;-81
2021/09/20 09:48:50;;;;;;;21.85;9.93;;;18.90;85.50;;;;;;5034910;28;20177;-81
2021/09/20 09:51:17;;;;;;;21.95;11.82;;;18.90;85.80;;;;;;5034907;28;20180;-81
2021/09/20 09:53:46;;;;;;;25.27;12.82;;;19.00;85.10;;;;;;5034562;28;20182;-81
2021/09/20 09:56:15;;;;;;;21.83;10.95;;;19.00;85.60;;;;;;5034957;28;20197;-81
2021/09/20 09:58:52;;;;;;;24.80;11.52;;;19.00;83.90;;;;;;5034595;28;20184;-81
2021/09/20 10:01:21;;;;;;;24.42;11.55;;;19.00;84.40;;;;;;5035588;28;20569;-81
2021/09/20 10:04:02;;;;;;;20.33;10.90;;;19.00;84.20;;;;;;5034670;28;20170;-81
2021/09/20 10:06:28;;;;;;;20.92;10.57;;;18.90;85.20;;;;;;5034550;28;20193;-81
2021/09/20 10:08:54;;;;;;;23.73;11.30;;;18.80;86.00;;;;;;5034791;28;20173;-81
2021/09/20 10:11:20;;;;;;;24.30;11.33;;;18.90;85.60;;;;;;5034453;28;20174;-81
2021/09/20 10:13:48;;;;;;;20.47;11.13;;;18.90;84.90;;;;;;5033988;28;20417;-81
2021/09/20 10:16:14;;;;;;;24.55;11.55;;;18.70;85.10;;;;;;5034275;28;20463;-81
2021/09/20 10:18:41;;;;;;;26.02;12.02;;;18.60;85.30;;;;;;5034473;28;20587;-81
2021/09/20 10:21:07;;;;;;;22.08;10.70;;;18.60;85.50;;;;;;5034173;28;20206;-81
2021/09/20 10:23:33;;;;;;;21.03;10.07;;;18.60;86.30;;;;;;5033902;28;20180;-81
2021/09/20 10:25:59;;;;;;;22.60;10.93;;;18.60;86.70;;;;;;5035746;28;20455;-81
2021/09/20 10:28:25;;;;;;;28.65;12.13;;;18.60;86.20;;;;;;5034394;28;20166;-82
2021/09/20 10:30:53;;;;;;;26.63;13.00;;;18.50;86.60;;;;;;5033783;28;20228;-81
2021/09/20 10:33:27;;;;;;;23.17;10.60;;;18.50;86.70;;;;;;5033741;28;20181;-81
2021/09/20 10:35:54;;;;;;;20.40;10.43;;;18.50;86.70;;;;;;5033625;28;20194;-81
2021/09/20 10:38:21;;;;;;;18.50;10.40;;;18.60;86.70;;;;;;5034057;28;20189;-81
2021/09/20 10:41:21;;;;;;;18.73;8.52;;;18.60;85.80;;;;;;5033550;28;20213;-81
2021/09/20 10:44:05;;;;;;;23.02;10.18;;;18.70;85.50;;;;;;5001861;28;20227;-82
2021/09/20 10:46:33;;;;;;;23.92;11.35;;;18.70;85.80;;;;;;5034203;28;20209;-81
2021/09/20 10:49:04;;;;;;;25.33;11.93;;;18.70;85.80;;;;;;5034234;28;20533;-81
2021/09/20 10:51:40;;;;;;;27.50;11.77;;;18.50;87.00;;;;;;5034178;28;20177;-81
2021/09/20 10:54:24;;;;;;;26.15;13.07;;;18.40;87.70;;;;;;5033410;28;20549;-81
2021/09/20 10:56:54;;;;;;;25.15;12.20;;;18.30;86.70;;;;;;5034082;28;20565;-82
2021/09/20 10:59:24;;;;;;;28.65;13.57;;;18.30;88.80;;;;;;5034284;28;20197;-81
2021/09/20 11:01:59;;;;;;;35.28;13.20;;;18.40;87.60;;;;;;5033256;28;20256;-81
2021/09/20 11:04:34;;;;;;;21.10;10.05;;;18.50;87.10;;;;;;5033594;28;20209;-82
2021/09/20 11:07:07;;;;;;;33.47;12.30;;;18.50;87.40;;;;;;5033587;28;20252;-81
2021/09/20 11:09:43;;;;;;;24.92;12.30;;;18.60;87.40;;;;;;5033187;28;20166;-81
2021/09/20 11:12:25;;;;;;;22.38;10.60;;;18.60;86.90;;;;;;5034330;28;20549;-79
2021/09/20 11:15:13;;;;;;;27.08;11.75;;;18.70;87.00;;;;;;5034466;28;20169;-79
2021/09/20 11:17:47;;;;;;;22.15;11.70;;;18.80;85.60;;;;;;5035539;28;20366;-79
2021/09/20 11:20:16;;;;;;;22.30;10.93;;;19.00;85.60;;;;;;5034714;28;20220;-79
2021/09/20 11:22:42;;;;;;;25.55;12.35;;;19.20;85.60;;;;;;5035026;28;20271;-79
2021/09/20 11:25:13;;;;;;;24.23;13.45;;;19.40;83.90;;;;;;5034058;28;20185;-79
2021/09/20 11:27:42;;;;;;;24.55;12.25;;;19.40;82.00;;;;;;5035794;28;20170;-79
2021/09/20 11:30:18;;;;;;;26.40;12.10;;;19.30;83.40;;;;;;5035540;28;20723;-80
2021/09/20 11:32:52;;;;;;;23.50;10.55;;;19.40;83.50;;;;;;5035002;28;20530;-80
2021/09/20 11:35:19;;;;;;;21.45;11.50;;;19.60;82.80;;;;;;5034357;28;20704;-79
2021/09/20 11:37:45;;;;;;;21.70;11.38;;;19.60;81.60;;;;;;5035118;28;20251;-80
2021/09/20 11:40:13;;;;;;;20.92;11.63;;;19.80;83.40;;;;;;5035084;28;20760;-80
2021/09/20 11:42:40;;;;;;;25.98;12.40;;;19.90;80.50;;;;;;5034678;28;20178;-80
2021/09/20 11:45:19;;;;;;;22.13;10.98;;;19.90;79.60;;;;;;5034902;28;20193;-79
2021/09/20 11:47:53;;;;;;;19.58;10.63;;;19.70;80.60;;;;;;5034744;28;20174;-80
2021/09/20 11:50:24;;;;;;;20.45;11.15;;;19.70;80.80;;;;;;5035156;28;20770;-80
2021/09/20 11:52:59;;;;;;;24.20;12.80;;;19.70;81.20;;;;;;5034677;28;20170;-79
2021/09/20 11:55:28;;;;;;;22.90;11.00;;;19.70;79.60;;;;;;5034427;28;20193;-79
2021/09/20 11:57:56;;;;;;;22.35;10.43;;;19.60;80.90;;;;;;5034614;28;20182;-80
2021/09/20 12:00:26;;;;;;;17.15;10.23;;;19.70;82.40;;;;;;5035759;28;20212;-79
2021/09/20 12:02:54;;;;;;;18.52;10.20;;;19.70;81.60;;;;;;5038988;28;20238;-80
2021/09/20 12:05:26;;;;;;;24.30;11.18;;;19.90;81.90;;;;;;5038563;28;20189;-80
2021/09/20 12:08:00;;;;;;;24.38;11.27;;;19.90;79.50;;;;;;5038269;28;20172;-80
2021/09/20 12:10:29;;;;;;;19.83;10.98;;;20.00;80.30;;;;;;5038140;28;20630;-79
2021/09/20 12:12:57;;;;;;;23.92;10.68;;;19.90;79.90;;;;;;5039496;28;20239;-79
2021/09/20 12:15:29;;;;;;;18.48;10.35;;;19.70;80.20;;;;;;5037962;28;20209;-80
2021/09/20 12:17:57;;;;;;;19.90;10.20;;;19.80;81.40;;;;;;5037814;28;20656;-80
2021/09/20 12:20:37;;;;;;;19.05;10.10;;;19.80;80.20;;;;;;5037039;28;20198;-81
2021/09/20 12:23:10;;;;;;;23.35;10.60;;;19.90;79.60;;;;;;5037363;28;20665;-80
2021/09/20 12:25:39;;;;;;;19.85;11.02;;;20.00;80.10;;;;;;5036074;28;20194;-84
2021/09/20 12:28:14;;;;;;;21.90;10.57;;;20.10;78.70;;;;;;5035851;28;20178;-84
2021/09/20 12:30:55;;;;;;;22.17;11.65;;;20.10;79.40;;;;;;5036570;28;20265;-84
2021/09/20 12:33:22;;;;;;;17.25;10.38;;;20.00;79.40;;;;;;5036846;28;20815;-84
2021/09/20 12:35:47;;;;;;;17.05;9.50;;;20.00;79.10;;;;;;5036098;28;20661;-84
2021/09/20 12:38:35;;;;;;;16.30;9.20;;;20.00;79.40;;;;;;5035784;28;20228;-84